sensor_id;sensor_type;location;lat;lon;timestamp;P1;durP1;ratioP1;P2;durP2;ratioP2
61025;SDS011;46911;32.650;-16.902;2022-12-07T00:01:56;52.80;;;5.93;;
61025;SDS011;46911;32.650;-16.902;2022-12-07T00:04:03;35.13;;;4.25;;
61025;SDS011;46911;32.650;-16.902;2022-12-07T00:06:05;41.83;;;3.72;;
61025;SDS011;46911;32.650;-16.902;2022-12-07T00:08:11;71.03;;;7.20;;
61025;SDS011;46911;32.650;-16.902;2022-12-07T00:10:12;53.60;;;7.03;;
61025;SDS011;46911;32.650;-16.902;2022-12-07T00:12:13;42.25;;;5.72;;
61025;SDS011;46911;32.650;-16.902;2022-12-07T00:14:15;71.82;;;7.13;;
61025;SDS011;46911;32.650;-16.902;2022-12-07T00:16:19;60.65;;;7.45;;
61025;SDS011;46911;32.650;-16.902;2022-12-07T00:18:26;77.88;;;7.65;;
61025;SDS011;46911;32.650;-16.902;2022-12-07T00:20:30;67.03;;;9.05;;
61025;SDS011;46911;32.650;-16.902;2022-12-07T00:22:31;49.10;;;7.97;;
61025;SDS011;46911;32.650;-16.902;2022-12-07T00:24:35;58.45;;;7.15;;
61025;SDS011;46911;32.650;-16.902;2022-12-07T00:26:39;50.40;;;6.95;;
61025;SDS011;46911;32.650;-16.902;2022-12-07T00:28:41;49.20;;;5.03;;
61025;SDS011;46911;32.650;-16.902;2022-12-07T00:30:45;33.08;;;3.38;;
61025;SDS011;46911;32.650;-16.902;2022-12-07T00:32:46;54.47;;;5.05;;
61025;SDS011;46911;32.650;-16.902;2022-12-07T00:34:50;48.17;;;4.00;;
61025;SDS011;46911;32.650;-16.902;2022-12-07T00:36:53;48.70;;;3.78;;
61025;SDS011;46911;32.650;-16.902;2022-12-07T00:38:55;49.03;;;4.57;;
61025;SDS011;46911;32.650;-16.902;2022-12-07T00:41:04;48.45;;;4.53;;
61025;SDS011;46911;32.650;-16.902;2022-12-07T00:43:09;47.00;;;3.45;;
61025;SDS011;46911;32.650;-16.902;2022-12-07T00:45:10;51.10;;;4.47;;
61025;SDS011;46911;32.650;-16.902;2022-12-07T00:47:11;28.88;;;3.33;;
61025;SDS011;46911;32.650;-16.902;2022-12-07T00:49:12;31.77;;;3.80;;
61025;SDS011;46911;32.650;-16.902;2022-12-07T00:51:16;40.45;;;3.08;;
61025;SDS011;46911;32.650;-16.902;2022-12-07T00:53:18;53.55;;;4.97;;
61025;SDS011;46911;32.650;-16.902;2022-12-07T00:55:22;60.47;;;4.00;;
61025;SDS011;46911;32.650;-16.902;2022-12-07T00:57:25;54.80;;;4.20;;
61025;SDS011;46911;32.650;-16.902;2022-12-07T00:59:26;55.30;;;5.43;;
61025;SDS011;46911;32.650;-16.902;2022-12-07T01:01:30;56.60;;;4.68;;
61025;SDS011;46911;32.650;-16.902;2022-12-07T01:03:32;56.97;;;4.93;;
61025;SDS011;46911;32.650;-16.902;2022-12-07T01:05:33;70.63;;;7.03;;
61025;SDS011;46911;32.650;-16.902;2022-12-07T01:07:35;82.55;;;9.05;;
61025;SDS011;46911;32.650;-16.902;2022-12-07T01:09:36;86.45;;;7.80;;
61025;SDS011;46911;32.650;-16.902;2022-12-07T01:11:40;59.38;;;6.13;;
61025;SDS011;46911;32.650;-16.902;2022-12-07T01:13:41;51.53;;;5.78;;
61025;SDS011;46911;32.650;-16.902;2022-12-07T01:15:43;53.33;;;5.25;;
61025;SDS011;46911;32.650;-16.902;2022-12-07T01:17:45;53.40;;;5.50;;
61025;SDS011;46911;32.650;-16.902;2022-12-07T01:19:48;52.22;;;6.45;;
61025;SDS011;46911;32.650;-16.902;2022-12-07T01:21:49;79.82;;;6.82;;
61025;SDS011;46911;32.650;-16.902;2022-12-07T01:23:50;62.45;;;6.70;;
61025;SDS011;46911;32.650;-16.902;2022-12-07T01:25:55;49.17;;;7.32;;
61025;SDS011;46911;32.650;-16.902;2022-12-07T01:27:59;57.55;;;6.28;;
61025;SDS011;46911;32.650;-16.902;2022-12-07T01:30:00;51.53;;;6.05;;
61025;SDS011;46911;32.650;-16.902;2022-12-07T01:32:07;49.55;;;5.72;;
61025;SDS011;46911;32.650;-16.902;2022-12-07T01:34:08;60.85;;;6.80;;
61025;SDS011;46911;32.650;-16.902;2022-12-07T01:38:19;41.25;;;4.15;;
61025;SDS011;46911;32.650;-16.902;2022-12-07T01:40:20;35.55;;;4.32;;
61025;SDS011;46911;32.650;-16.902;2022-12-07T01:42:21;34.90;;;3.67;;
61025;SDS011;46911;32.650;-16.902;2022-12-07T01:44:23;38.92;;;4.43;;
61025;SDS011;46911;32.650;-16.902;2022-12-07T01:46:29;39.15;;;3.42;;
61025;SDS011;46911;32.650;-16.902;2022-12-07T01:48:38;27.83;;;3.00;;
61025;SDS011;46911;32.650;-16.902;2022-12-07T01:50:42;48.10;;;4.38;;
61025;SDS011;46911;32.650;-16.902;2022-12-07T01:52:45;39.90;;;4.18;;
61025;SDS011;46911;32.650;-16.902;2022-12-07T01:54:54;66.72;;;7.30;;
61025;SDS011;46911;32.650;-16.902;2022-12-07T01:57:01;67.85;;;6.22;;
61025;SDS011;46911;32.650;-16.902;2022-12-07T01:59:08;58.95;;;5.72;;
61025;SDS011;46911;32.650;-16.902;2022-12-07T02:01:11;64.70;;;6.20;;
61025;SDS011;46911;32.650;-16.902;2022-12-07T02:03:22;62.17;;;5.70;;
61025;SDS011;46911;32.650;-16.902;2022-12-07T02:05:29;51.75;;;5.45;;
61025;SDS011;46911;32.650;-16.902;2022-12-07T02:07:32;66.70;;;8.57;;
61025;SDS011;46911;32.650;-16.902;2022-12-07T02:09:36;68.07;;;7.00;;
61025;SDS011;46911;32.650;-16.902;2022-12-07T02:11:39;91.90;;;8.75;;
61025;SDS011;46911;32.650;-16.902;2022-12-07T02:13:41;85.50;;;7.45;;
61025;SDS011;46911;32.650;-16.902;2022-12-07T02:30:31;37.47;;;3.85;;
61025;SDS011;46911;32.650;-16.902;2022-12-07T02:35:06;41.50;;;3.70;;
61025;SDS011;46911;32.650;-16.902;2022-12-07T02:42:18;37.22;;;3.00;;
61025;SDS011;46911;32.650;-16.902;2022-12-07T02:44:27;31.90;;;3.20;;
61025;SDS011;46911;32.650;-16.902;2022-12-07T02:46:37;35.17;;;4.25;;
61025;SDS011;46911;32.650;-16.902;2022-12-07T02:48:42;40.15;;;3.63;;
61025;SDS011;46911;32.650;-16.902;2022-12-07T02:50:50;31.45;;;4.35;;
61025;SDS011;46911;32.650;-16.902;2022-12-07T02:52:55;32.15;;;4.60;;
61025;SDS011;46911;32.650;-16.902;2022-12-07T02:54:56;27.80;;;3.60;;
61025;SDS011;46911;32.650;-16.902;2022-12-07T02:59:29;35.95;;;3.83;;
61025;SDS011;46911;32.650;-16.902;2022-12-07T03:06:36;36.83;;;4.45;;
61025;SDS011;46911;32.650;-16.902;2022-12-07T03:10:54;40.08;;;3.22;;
61025;SDS011;46911;32.650;-16.902;2022-12-07T03:13:41;32.13;;;4.72;;
61025;SDS011;46911;32.650;-16.902;2022-12-07T03:17:59;33.20;;;3.03;;
61025;SDS011;46911;32.650;-16.902;2022-12-07T03:20:03;40.67;;;3.60;;
61025;SDS011;46911;32.650;-16.902;2022-12-07T03:22:07;46.90;;;6.18;;
61025;SDS011;46911;32.650;-16.902;2022-12-07T03:24:17;38.17;;;4.25;;
61025;SDS011;46911;32.650;-16.902;2022-12-07T03:26:24;41.97;;;4.03;;
61025;SDS011;46911;32.650;-16.902;2022-12-07T03:28:35;31.92;;;3.50;;
61025;SDS011;46911;32.650;-16.902;2022-12-07T03:30:53;34.42;;;4.78;;
61025;SDS011;46911;32.650;-16.902;2022-12-07T03:33:04;28.30;;;3.45;;
61025;SDS011;46911;32.650;-16.902;2022-12-07T03:42:05;26.23;;;2.72;;
61025;SDS011;46911;32.650;-16.902;2022-12-07T03:44:11;21.15;;;2.30;;
61025;SDS011;46911;32.650;-16.902;2022-12-07T03:46:19;20.30;;;2.90;;
61025;SDS011;46911;32.650;-16.902;2022-12-07T03:51:26;13.95;;;1.80;;
61025;SDS011;46911;32.650;-16.902;2022-12-07T03:53:35;24.27;;;1.73;;
61025;SDS011;46911;32.650;-16.902;2022-12-07T03:55:42;27.67;;;2.08;;
61025;SDS011;46911;32.650;-16.902;2022-12-07T03:57:49;16.45;;;1.90;;
61025;SDS011;46911;32.650;-16.902;2022-12-07T03:59:56;14.25;;;2.00;;
61025;SDS011;46911;32.650;-16.902;2022-12-07T04:02:01;19.73;;;1.90;;
61025;SDS011;46911;32.650;-16.902;2022-12-07T04:04:06;18.42;;;2.25;;
61025;SDS011;46911;32.650;-16.902;2022-12-07T04:06:06;22.75;;;2.03;;
61025;SDS011;46911;32.650;-16.902;2022-12-07T04:08:07;13.25;;;2.05;;
61025;SDS011;46911;32.650;-16.902;2022-12-07T04:10:11;14.43;;;1.35;;
61025;SDS011;46911;32.650;-16.902;2022-12-07T04:12:16;17.50;;;1.10;;
61025;SDS011;46911;32.650;-16.902;2022-12-07T04:14:17;5.40;;;0.80;;
61025;SDS011;46911;32.650;-16.902;2022-12-07T04:16:20;11.27;;;1.10;;
61025;SDS011;46911;32.650;-16.902;2022-12-07T04:18:25;4.25;;;0.70;;
61025;SDS011;46911;32.650;-16.902;2022-12-07T04:20:25;6.82;;;1.20;;
61025;SDS011;46911;32.650;-16.902;2022-12-07T04:22:26;8.65;;;1.00;;
61025;SDS011;46911;32.650;-16.902;2022-12-07T04:24:29;6.57;;;0.85;;
61025;SDS011;46911;32.650;-16.902;2022-12-07T04:26:33;17.45;;;3.53;;
61025;SDS011;46911;32.650;-16.902;2022-12-07T04:28:34;3.53;;;0.95;;
61025;SDS011;46911;32.650;-16.902;2022-12-07T04:30:35;4.70;;;0.82;;
61025;SDS011;46911;32.650;-16.902;2022-12-07T04:32:36;13.23;;;1.33;;
61025;SDS011;46911;32.650;-16.902;2022-12-07T04:34:39;8.20;;;1.08;;
61025;SDS011;46911;32.650;-16.902;2022-12-07T04:36:43;7.95;;;1.10;;
61025;SDS011;46911;32.650;-16.902;2022-12-07T04:38:47;7.72;;;1.45;;
61025;SDS011;46911;32.650;-16.902;2022-12-07T04:40:48;9.77;;;1.20;;
61025;SDS011;46911;32.650;-16.902;2022-12-07T04:42:49;5.03;;;0.60;;
61025;SDS011;46911;32.650;-16.902;2022-12-07T04:44:52;11.10;;;0.88;;
61025;SDS011;46911;32.650;-16.902;2022-12-07T04:46:55;6.25;;;0.43;;
61025;SDS011;46911;32.650;-16.902;2022-12-07T04:48:57;7.90;;;1.48;;
61025;SDS011;46911;32.650;-16.902;2022-12-07T04:51:03;8.18;;;0.85;;
61025;SDS011;46911;32.650;-16.902;2022-12-07T04:53:07;2.15;;;0.40;;
61025;SDS011;46911;32.650;-16.902;2022-12-07T04:55:10;12.45;;;0.93;;
61025;SDS011;46911;32.650;-16.902;2022-12-07T04:57:11;3.25;;;0.50;;
61025;SDS011;46911;32.650;-16.902;2022-12-07T04:59:17;5.72;;;0.68;;
61025;SDS011;46911;32.650;-16.902;2022-12-07T05:01:21;1.10;;;0.40;;
61025;SDS011;46911;32.650;-16.902;2022-12-07T05:03:23;2.17;;;0.45;;
61025;SDS011;46911;32.650;-16.902;2022-12-07T05:05:26;5.45;;;0.80;;
61025;SDS011;46911;32.650;-16.902;2022-12-07T05:07:29;6.82;;;0.80;;
61025;SDS011;46911;32.650;-16.902;2022-12-07T05:09:30;4.88;;;0.73;;
61025;SDS011;46911;32.650;-16.902;2022-12-07T05:11:33;6.70;;;0.90;;
61025;SDS011;46911;32.650;-16.902;2022-12-07T05:13:43;6.80;;;0.70;;
61025;SDS011;46911;32.650;-16.902;2022-12-07T05:15:47;7.50;;;1.00;;
61025;SDS011;46911;32.650;-16.902;2022-12-07T05:17:48;1.92;;;0.40;;
61025;SDS011;46911;32.650;-16.902;2022-12-07T05:19:52;6.32;;;0.52;;
61025;SDS011;46911;32.650;-16.902;2022-12-07T05:21:53;4.60;;;0.52;;
61025;SDS011;46911;32.650;-16.902;2022-12-07T05:23:53;4.55;;;1.27;;
61025;SDS011;46911;32.650;-16.902;2022-12-07T05:25:57;5.68;;;0.88;;
61025;SDS011;46911;32.650;-16.902;2022-12-07T05:27:59;6.60;;;0.57;;
61025;SDS011;46911;32.650;-16.902;2022-12-07T05:30:00;2.78;;;0.30;;
61025;SDS011;46911;32.650;-16.902;2022-12-07T05:32:03;11.13;;;1.38;;
61025;SDS011;46911;32.650;-16.902;2022-12-07T05:34:07;7.10;;;0.88;;
61025;SDS011;46911;32.650;-16.902;2022-12-07T05:36:08;9.48;;;1.05;;
61025;SDS011;46911;32.650;-16.902;2022-12-07T05:38:14;3.47;;;0.73;;
61025;SDS011;46911;32.650;-16.902;2022-12-07T05:40:22;7.50;;;1.00;;
61025;SDS011;46911;32.650;-16.902;2022-12-07T05:42:25;9.73;;;0.82;;
61025;SDS011;46911;32.650;-16.902;2022-12-07T05:44:26;10.35;;;0.93;;
61025;SDS011;46911;32.650;-16.902;2022-12-07T05:46:27;11.23;;;0.88;;
61025;SDS011;46911;32.650;-16.902;2022-12-07T05:48:30;4.32;;;0.80;;
61025;SDS011;46911;32.650;-16.902;2022-12-07T05:50:31;11.93;;;1.20;;
61025;SDS011;46911;32.650;-16.902;2022-12-07T05:52:34;16.50;;;1.27;;
61025;SDS011;46911;32.650;-16.902;2022-12-07T05:54:35;8.38;;;1.13;;
61025;SDS011;46911;32.650;-16.902;2022-12-07T05:56:36;10.38;;;1.35;;
61025;SDS011;46911;32.650;-16.902;2022-12-07T05:58:37;8.65;;;0.80;;
61025;SDS011;46911;32.650;-16.902;2022-12-07T06:00:57;7.00;;;0.77;;
61025;SDS011;46911;32.650;-16.902;2022-12-07T06:03:00;9.75;;;0.88;;
61025;SDS011;46911;32.650;-16.902;2022-12-07T06:05:01;8.15;;;1.00;;
61025;SDS011;46911;32.650;-16.902;2022-12-07T06:07:04;8.35;;;1.13;;
61025;SDS011;46911;32.650;-16.902;2022-12-07T06:09:10;9.23;;;0.90;;
61025;SDS011;46911;32.650;-16.902;2022-12-07T06:11:12;8.00;;;1.00;;
61025;SDS011;46911;32.650;-16.902;2022-12-07T06:13:31;12.77;;;1.65;;
61025;SDS011;46911;32.650;-16.902;2022-12-07T06:15:35;12.85;;;1.15;;
61025;SDS011;46911;32.650;-16.902;2022-12-07T06:17:36;12.48;;;1.40;;
61025;SDS011;46911;32.650;-16.902;2022-12-07T06:19:38;11.00;;;1.67;;
61025;SDS011;46911;32.650;-16.902;2022-12-07T06:21:42;12.73;;;1.52;;
61025;SDS011;46911;32.650;-16.902;2022-12-07T06:23:45;11.05;;;1.48;;
61025;SDS011;46911;32.650;-16.902;2022-12-07T06:25:48;6.88;;;1.00;;
61025;SDS011;46911;32.650;-16.902;2022-12-07T06:27:48;7.15;;;1.02;;
61025;SDS011;46911;32.650;-16.902;2022-12-07T06:29:52;8.77;;;1.02;;
61025;SDS011;46911;32.650;-16.902;2022-12-07T06:31:56;11.40;;;1.42;;
61025;SDS011;46911;32.650;-16.902;2022-12-07T06:34:00;13.73;;;1.25;;
61025;SDS011;46911;32.650;-16.902;2022-12-07T06:36:03;16.08;;;1.30;;
61025;SDS011;46911;32.650;-16.902;2022-12-07T06:38:04;5.50;;;0.80;;
61025;SDS011;46911;32.650;-16.902;2022-12-07T06:40:08;13.55;;;2.15;;
61025;SDS011;46911;32.650;-16.902;2022-12-07T06:42:12;8.10;;;1.33;;
61025;SDS011;46911;32.650;-16.902;2022-12-07T06:44:13;8.73;;;1.00;;
61025;SDS011;46911;32.650;-16.902;2022-12-07T06:46:14;9.55;;;1.17;;
61025;SDS011;46911;32.650;-16.902;2022-12-07T06:48:20;8.02;;;1.20;;
61025;SDS011;46911;32.650;-16.902;2022-12-07T06:50:24;11.00;;;1.60;;
61025;SDS011;46911;32.650;-16.902;2022-12-07T06:52:27;11.35;;;1.23;;
61025;SDS011;46911;32.650;-16.902;2022-12-07T06:54:33;14.07;;;1.75;;
61025;SDS011;46911;32.650;-16.902;2022-12-07T06:56:36;14.45;;;2.80;;
61025;SDS011;46911;32.650;-16.902;2022-12-07T06:58:40;9.57;;;1.85;;
61025;SDS011;46911;32.650;-16.902;2022-12-07T07:00:42;13.13;;;1.20;;
61025;SDS011;46911;32.650;-16.902;2022-12-07T07:02:43;8.25;;;2.25;;
61025;SDS011;46911;32.650;-16.902;2022-12-07T07:04:51;17.08;;;1.70;;
61025;SDS011;46911;32.650;-16.902;2022-12-07T07:06:52;17.27;;;2.95;;
61025;SDS011;46911;32.650;-16.902;2022-12-07T07:08:56;11.45;;;1.63;;
61025;SDS011;46911;32.650;-16.902;2022-12-07T07:10:59;12.60;;;1.40;;
61025;SDS011;46911;32.650;-16.902;2022-12-07T07:13:03;13.68;;;2.08;;
61025;SDS011;46911;32.650;-16.902;2022-12-07T07:15:04;21.25;;;1.58;;
61025;SDS011;46911;32.650;-16.902;2022-12-07T07:17:05;13.35;;;2.00;;
61025;SDS011;46911;32.650;-16.902;2022-12-07T07:19:06;13.80;;;2.03;;
61025;SDS011;46911;32.650;-16.902;2022-12-07T07:21:10;17.98;;;3.55;;
61025;SDS011;46911;32.650;-16.902;2022-12-07T07:23:15;24.55;;;2.17;;
61025;SDS011;46911;32.650;-16.902;2022-12-07T07:25:16;28.30;;;3.60;;
61025;SDS011;46911;32.650;-16.902;2022-12-07T07:27:21;22.30;;;2.45;;
61025;SDS011;46911;32.650;-16.902;2022-12-07T07:29:22;29.45;;;3.20;;
61025;SDS011;46911;32.650;-16.902;2022-12-07T07:31:28;25.27;;;2.75;;
61025;SDS011;46911;32.650;-16.902;2022-12-07T07:33:34;21.05;;;2.70;;
61025;SDS011;46911;32.650;-16.902;2022-12-07T07:35:35;21.30;;;2.92;;
61025;SDS011;46911;32.650;-16.902;2022-12-07T07:37:36;22.33;;;5.00;;
61025;SDS011;46911;32.650;-16.902;2022-12-07T07:39:37;23.55;;;2.78;;
61025;SDS011;46911;32.650;-16.902;2022-12-07T07:41:40;26.58;;;2.38;;
61025;SDS011;46911;32.650;-16.902;2022-12-07T07:43:46;18.17;;;3.17;;
61025;SDS011;46911;32.650;-16.902;2022-12-07T07:45:47;25.05;;;2.72;;
61025;SDS011;46911;32.650;-16.902;2022-12-07T07:47:48;18.73;;;2.60;;
61025;SDS011;46911;32.650;-16.902;2022-12-07T07:49:52;18.08;;;2.33;;
61025;SDS011;46911;32.650;-16.902;2022-12-07T07:51:53;19.42;;;2.22;;
61025;SDS011;46911;32.650;-16.902;2022-12-07T07:53:53;23.13;;;2.50;;
61025;SDS011;46911;32.650;-16.902;2022-12-07T07:55:54;21.83;;;2.97;;
61025;SDS011;46911;32.650;-16.902;2022-12-07T07:57:56;25.27;;;2.45;;
61025;SDS011;46911;32.650;-16.902;2022-12-07T07:59:58;25.88;;;2.80;;
61025;SDS011;46911;32.650;-16.902;2022-12-07T08:01:58;18.75;;;2.38;;
61025;SDS011;46911;32.650;-16.902;2022-12-07T08:04:01;29.23;;;2.42;;
61025;SDS011;46911;32.650;-16.902;2022-12-07T08:06:03;29.33;;;3.25;;
61025;SDS011;46911;32.650;-16.902;2022-12-07T08:08:04;21.67;;;2.95;;
61025;SDS011;46911;32.650;-16.902;2022-12-07T08:10:05;18.73;;;3.15;;
61025;SDS011;46911;32.650;-16.902;2022-12-07T08:12:07;22.10;;;3.55;;
61025;SDS011;46911;32.650;-16.902;2022-12-07T08:14:13;21.88;;;2.70;;
61025;SDS011;46911;32.650;-16.902;2022-12-07T08:16:14;26.55;;;3.50;;
61025;SDS011;46911;32.650;-16.902;2022-12-07T08:18:15;23.33;;;2.70;;
61025;SDS011;46911;32.650;-16.902;2022-12-07T08:20:16;16.65;;;2.15;;
61025;SDS011;46911;32.650;-16.902;2022-12-07T08:22:17;18.48;;;1.92;;
61025;SDS011;46911;32.650;-16.902;2022-12-07T08:24:19;14.93;;;1.95;;
61025;SDS011;46911;32.650;-16.902;2022-12-07T08:26:22;20.55;;;2.08;;
61025;SDS011;46911;32.650;-16.902;2022-12-07T08:28:26;20.13;;;2.25;;
61025;SDS011;46911;32.650;-16.902;2022-12-07T08:30:28;12.38;;;1.70;;
61025;SDS011;46911;32.650;-16.902;2022-12-07T08:32:30;16.85;;;2.20;;
61025;SDS011;46911;32.650;-16.902;2022-12-07T08:34:31;10.70;;;2.05;;
61025;SDS011;46911;32.650;-16.902;2022-12-07T08:36:32;22.67;;;2.55;;
61025;SDS011;46911;32.650;-16.902;2022-12-07T08:38:35;18.58;;;2.33;;
61025;SDS011;46911;32.650;-16.902;2022-12-07T08:40:37;24.38;;;3.80;;
61025;SDS011;46911;32.650;-16.902;2022-12-07T08:42:38;18.98;;;1.98;;
61025;SDS011;46911;32.650;-16.902;2022-12-07T08:44:40;15.40;;;2.63;;
61025;SDS011;46911;32.650;-16.902;2022-12-07T08:46:47;23.65;;;3.17;;
61025;SDS011;46911;32.650;-16.902;2022-12-07T08:49:13;12.82;;;1.45;;
61025;SDS011;46911;32.650;-16.902;2022-12-07T08:51:16;11.75;;;1.88;;
61025;SDS011;46911;32.650;-16.902;2022-12-07T08:53:19;11.52;;;1.23;;
61025;SDS011;46911;32.650;-16.902;2022-12-07T08:55:23;11.60;;;1.55;;
61025;SDS011;46911;32.650;-16.902;2022-12-07T08:57:27;7.82;;;1.67;;
61025;SDS011;46911;32.650;-16.902;2022-12-07T08:59:31;18.42;;;1.90;;
61025;SDS011;46911;32.650;-16.902;2022-12-07T09:01:37;11.02;;;1.77;;
61025;SDS011;46911;32.650;-16.902;2022-12-07T09:03:40;10.23;;;1.55;;
61025;SDS011;46911;32.650;-16.902;2022-12-07T09:05:41;16.48;;;1.83;;
61025;SDS011;46911;32.650;-16.902;2022-12-07T09:07:42;11.27;;;2.75;;
61025;SDS011;46911;32.650;-16.902;2022-12-07T09:09:46;11.02;;;1.30;;
61025;SDS011;46911;32.650;-16.902;2022-12-07T09:11:47;15.68;;;1.30;;
61025;SDS011;46911;32.650;-16.902;2022-12-07T09:13:48;15.35;;;1.80;;
61025;SDS011;46911;32.650;-16.902;2022-12-07T09:15:48;11.13;;;1.60;;
61025;SDS011;46911;32.650;-16.902;2022-12-07T09:17:49;19.77;;;1.67;;
61025;SDS011;46911;32.650;-16.902;2022-12-07T09:19:52;13.50;;;1.92;;
61025;SDS011;46911;32.650;-16.902;2022-12-07T09:21:58;14.68;;;2.35;;
61025;SDS011;46911;32.650;-16.902;2022-12-07T09:23:59;8.75;;;1.50;;
61025;SDS011;46911;32.650;-16.902;2022-12-07T09:26:00;13.38;;;1.52;;
61025;SDS011;46911;32.650;-16.902;2022-12-07T09:28:03;8.93;;;1.50;;
61025;SDS011;46911;32.650;-16.902;2022-12-07T09:30:06;12.68;;;1.20;;
61025;SDS011;46911;32.650;-16.902;2022-12-07T09:32:07;9.80;;;1.40;;
61025;SDS011;46911;32.650;-16.902;2022-12-07T09:34:08;12.82;;;2.50;;
61025;SDS011;46911;32.650;-16.902;2022-12-07T09:36:09;12.65;;;1.52;;
61025;SDS011;46911;32.650;-16.902;2022-12-07T09:38:10;17.45;;;2.22;;
61025;SDS011;46911;32.650;-16.902;2022-12-07T09:40:19;8.95;;;1.95;;
61025;SDS011;46911;32.650;-16.902;2022-12-07T09:42:29;17.45;;;2.75;;
61025;SDS011;46911;32.650;-16.902;2022-12-07T09:44:39;17.65;;;2.25;;
61025;SDS011;46911;32.650;-16.902;2022-12-07T09:46:43;15.25;;;2.20;;
61025;SDS011;46911;32.650;-16.902;2022-12-07T09:48:47;10.45;;;1.83;;
61025;SDS011;46911;32.650;-16.902;2022-12-07T09:50:52;15.98;;;2.00;;
61025;SDS011;46911;32.650;-16.902;2022-12-07T09:53:06;17.48;;;1.98;;
61025;SDS011;46911;32.650;-16.902;2022-12-07T09:55:12;15.68;;;2.47;;
61025;SDS011;46911;32.650;-16.902;2022-12-07T09:57:16;15.85;;;2.15;;
61025;SDS011;46911;32.650;-16.902;2022-12-07T09:59:19;14.70;;;2.30;;
61025;SDS011;46911;32.650;-16.902;2022-12-07T10:01:20;21.95;;;3.03;;
61025;SDS011;46911;32.650;-16.902;2022-12-07T10:03:22;13.23;;;2.22;;
61025;SDS011;46911;32.650;-16.902;2022-12-07T10:05:26;13.85;;;1.98;;
61025;SDS011;46911;32.650;-16.902;2022-12-07T10:07:33;27.45;;;2.88;;
61025;SDS011;46911;32.650;-16.902;2022-12-07T10:09:33;21.58;;;3.28;;
61025;SDS011;46911;32.650;-16.902;2022-12-07T10:11:57;11.98;;;2.22;;
61025;SDS011;46911;32.650;-16.902;2022-12-07T10:14:10;21.23;;;3.35;;
61025;SDS011;46911;32.650;-16.902;2022-12-07T10:18:41;18.88;;;4.47;;
61025;SDS011;46911;32.650;-16.902;2022-12-07T10:20:45;24.73;;;3.22;;
61025;SDS011;46911;32.650;-16.902;2022-12-07T10:23:08;23.27;;;3.30;;
61025;SDS011;46911;32.650;-16.902;2022-12-07T10:25:22;27.45;;;3.67;;
61025;SDS011;46911;32.650;-16.902;2022-12-07T10:27:30;23.75;;;3.35;;
61025;SDS011;46911;32.650;-16.902;2022-12-07T10:29:37;26.77;;;4.22;;
61025;SDS011;46911;32.650;-16.902;2022-12-07T10:31:39;29.73;;;3.72;;
61025;SDS011;46911;32.650;-16.902;2022-12-07T10:33:57;25.85;;;3.15;;
61025;SDS011;46911;32.650;-16.902;2022-12-07T10:36:00;24.73;;;3.00;;
61025;SDS011;46911;32.650;-16.902;2022-12-07T10:38:15;23.67;;;3.22;;
61025;SDS011;46911;32.650;-16.902;2022-12-07T10:40:33;21.17;;;3.15;;
61025;SDS011;46911;32.650;-16.902;2022-12-07T10:42:39;27.45;;;3.75;;
61025;SDS011;46911;32.650;-16.902;2022-12-07T10:44:39;23.17;;;3.60;;
61025;SDS011;46911;32.650;-16.902;2022-12-07T10:47:26;25.52;;;2.53;;
61025;SDS011;46911;32.650;-16.902;2022-12-07T10:53:53;15.45;;;2.75;;
61025;SDS011;46911;32.650;-16.902;2022-12-07T11:01:04;30.23;;;3.65;;
61025;SDS011;46911;32.650;-16.902;2022-12-07T11:05:19;18.02;;;2.78;;
61025;SDS011;46911;32.650;-16.902;2022-12-07T11:10:01;23.90;;;4.53;;
61025;SDS011;46911;32.650;-16.902;2022-12-07T11:13:01;26.58;;;5.13;;
61025;SDS011;46911;32.650;-16.902;2022-12-07T11:17:43;26.90;;;4.10;;
61025;SDS011;46911;32.650;-16.902;2022-12-07T11:22:58;24.27;;;4.55;;
61025;SDS011;46911;32.650;-16.902;2022-12-07T11:28:09;35.90;;;5.68;;
61025;SDS011;46911;32.650;-16.902;2022-12-07T11:30:20;39.20;;;5.78;;
61025;SDS011;46911;32.650;-16.902;2022-12-07T11:32:31;28.83;;;4.43;;
61025;SDS011;46911;32.650;-16.902;2022-12-07T11:37:08;17.52;;;3.70;;
61025;SDS011;46911;32.650;-16.902;2022-12-07T11:41:37;31.85;;;4.97;;
61025;SDS011;46911;32.650;-16.902;2022-12-07T11:43:52;28.90;;;4.53;;
61025;SDS011;46911;32.650;-16.902;2022-12-07T11:46:00;27.23;;;4.53;;
61025;SDS011;46911;32.650;-16.902;2022-12-07T11:48:14;27.88;;;4.53;;
61025;SDS011;46911;32.650;-16.902;2022-12-07T11:54:40;35.63;;;4.30;;
61025;SDS011;46911;32.650;-16.902;2022-12-07T11:56:49;26.38;;;4.15;;
61025;SDS011;46911;32.650;-16.902;2022-12-07T11:59:01;19.90;;;3.03;;
61025;SDS011;46911;32.650;-16.902;2022-12-07T12:03:20;17.75;;;2.45;;
61025;SDS011;46911;32.650;-16.902;2022-12-07T12:05:35;17.00;;;2.90;;
61025;SDS011;46911;32.650;-16.902;2022-12-07T12:07:39;19.35;;;2.53;;
61025;SDS011;46911;32.650;-16.902;2022-12-07T12:09:49;13.82;;;2.25;;
61025;SDS011;46911;32.650;-16.902;2022-12-07T12:12:21;21.90;;;3.35;;
61025;SDS011;46911;32.650;-16.902;2022-12-07T12:14:32;17.73;;;3.03;;
61025;SDS011;46911;32.650;-16.902;2022-12-07T12:16:49;16.45;;;2.55;;
61025;SDS011;46911;32.650;-16.902;2022-12-07T12:21:22;11.85;;;3.13;;
61025;SDS011;46911;32.650;-16.902;2022-12-07T12:25:42;19.73;;;3.38;;
61025;SDS011;46911;32.650;-16.902;2022-12-07T12:27:58;16.30;;;2.97;;
61025;SDS011;46911;32.650;-16.902;2022-12-07T12:30:05;13.63;;;2.50;;
61025;SDS011;46911;32.650;-16.902;2022-12-07T12:32:24;15.90;;;3.30;;
61025;SDS011;46911;32.650;-16.902;2022-12-07T12:40:59;18.23;;;3.20;;
61025;SDS011;46911;32.650;-16.902;2022-12-07T12:43:01;23.88;;;3.22;;
61025;SDS011;46911;32.650;-16.902;2022-12-07T12:45:03;16.77;;;3.00;;
61025;SDS011;46911;32.650;-16.902;2022-12-07T12:50:04;20.02;;;4.03;;
61025;SDS011;46911;32.650;-16.902;2022-12-07T12:54:35;21.23;;;3.47;;
61025;SDS011;46911;32.650;-16.902;2022-12-07T12:56:40;27.20;;;4.22;;
61025;SDS011;46911;32.650;-16.902;2022-12-07T12:58:50;21.10;;;3.53;;
61025;SDS011;46911;32.650;-16.902;2022-12-07T13:03:32;13.95;;;2.80;;
61025;SDS011;46911;32.650;-16.902;2022-12-07T13:05:37;19.20;;;3.65;;
61025;SDS011;46911;32.650;-16.902;2022-12-07T13:09:48;18.83;;;3.33;;
61025;SDS011;46911;32.650;-16.902;2022-12-07T13:11:55;15.85;;;3.47;;
61025;SDS011;46911;32.650;-16.902;2022-12-07T13:16:43;16.23;;;3.75;;
61025;SDS011;46911;32.650;-16.902;2022-12-07T13:18:44;14.82;;;2.97;;
61025;SDS011;46911;32.650;-16.902;2022-12-07T13:20:48;20.83;;;3.15;;
61025;SDS011;46911;32.650;-16.902;2022-12-07T13:22:51;14.95;;;3.33;;
61025;SDS011;46911;32.650;-16.902;2022-12-07T13:24:55;16.60;;;3.33;;
61025;SDS011;46911;32.650;-16.902;2022-12-07T13:27:16;27.63;;;4.30;;
61025;SDS011;46911;32.650;-16.902;2022-12-07T13:29:19;32.85;;;6.78;;
61025;SDS011;46911;32.650;-16.902;2022-12-07T13:33:34;31.52;;;5.13;;
61025;SDS011;46911;32.650;-16.902;2022-12-07T13:35:36;31.20;;;4.05;;
61025;SDS011;46911;32.650;-16.902;2022-12-07T13:37:38;27.63;;;3.95;;
61025;SDS011;46911;32.650;-16.902;2022-12-07T13:39:50;35.63;;;4.55;;
61025;SDS011;46911;32.650;-16.902;2022-12-07T13:41:57;17.52;;;3.58;;
61025;SDS011;46911;32.650;-16.902;2022-12-07T13:46:10;20.85;;;3.67;;
61025;SDS011;46911;32.650;-16.902;2022-12-07T13:48:22;22.33;;;3.95;;
61025;SDS011;46911;32.650;-16.902;2022-12-07T13:50:29;23.27;;;3.40;;
61025;SDS011;46911;32.650;-16.902;2022-12-07T13:52:31;19.48;;;3.88;;
61025;SDS011;46911;32.650;-16.902;2022-12-07T13:54:32;20.50;;;3.50;;